Time;durP1;ratioP1;P1;durP2;ratioP2;P2;SDS_P1;SDS_P2;PMS_P1;PMS_P2;Temp;Humidity;BMP_temperature;BMP_pressure;BME280_temperature;BME280_humidity;BME280_pressure;Samples;Min_cycle;Max_cycle;Signal;HPM_P1;HPM_P2
2023/09/26 00:00:20;0.00;0.00;0.62;0.00;0.00;0.62;5.07;3.43;;;22.30;30.90;;;;;;2276016;60;20790;-60
2023/09/26 00:03:06;0.00;0.00;0.62;0.00;0.00;0.62;3.00;2.57;;;22.30;31.00;;;;;;2276400;60;20361;-62
2023/09/26 00:05:52;0.00;0.00;0.62;0.00;0.00;0.62;4.17;2.90;;;22.20;31.00;;;;;;2276683;60;20377;-62
2023/09/26 00:08:36;0.00;0.00;0.62;0.00;0.00;0.62;3.93;2.70;;;22.20;31.00;;;;;;2275984;60;20357;-61
2023/09/26 00:11:21;0.00;0.00;0.62;0.00;0.00;0.62;4.57;2.97;;;22.10;31.00;;;;;;2276549;60;20419;-61
2023/09/26 00:14:06;0.00;0.00;0.62;0.00;0.00;0.62;4.03;3.13;;;22.10;31.10;;;;;;2276262;60;20388;-61
2023/09/26 00:16:52;0.00;0.00;0.62;0.00;0.00;0.62;3.27;2.60;;;22.10;31.20;;;;;;2276333;60;20945;-61
2023/09/26 00:19:36;0.00;0.00;0.62;0.00;0.00;0.62;3.77;2.80;;;22.00;31.20;;;;;;2276134;60;20385;-60
2023/09/26 00:22:21;0.00;0.00;0.62;0.00;0.00;0.62;3.60;2.90;;;22.00;31.30;;;;;;2276519;60;20360;-62
2023/09/26 00:25:06;0.00;0.00;0.62;0.00;0.00;0.62;3.50;2.83;;;22.00;31.40;;;;;;2276599;60;20362;-55
2023/09/26 00:27:52;0.00;0.00;0.62;0.00;0.00;0.62;2.87;2.10;;;22.00;31.50;;;;;;2276207;60;20365;-59
2023/09/26 00:30:37;0.00;0.00;0.62;0.00;0.00;0.62;15.93;3.00;;;21.90;31.50;;;;;;2275868;60;20766;-63
2023/09/26 00:33:23;0.00;0.00;0.62;0.00;0.00;0.62;3.80;2.97;;;21.90;31.60;;;;;;2275830;60;20473;-60
2023/09/26 00:36:08;0.00;0.00;0.62;0.00;0.00;0.62;3.13;2.43;;;21.90;31.70;;;;;;2276341;60;20366;-59
2023/09/26 00:38:53;0.00;0.00;0.62;0.00;0.00;0.62;3.13;2.73;;;21.90;31.70;;;;;;2276154;60;20752;-60
2023/09/26 00:41:39;0.00;0.00;0.62;0.00;0.00;0.62;3.27;2.30;;;21.80;31.70;;;;;;2276545;60;20873;-60
2023/09/26 00:44:23;0.00;0.00;0.62;0.00;0.00;0.62;6.40;2.90;;;21.90;31.90;;;;;;2276953;60;20410;-63
2023/09/26 00:47:08;0.00;0.00;0.62;0.00;0.00;0.62;5.00;2.50;;;21.80;31.80;;;;;;2277254;60;20376;-64
2023/09/26 00:49:54;0.00;0.00;0.62;0.00;0.00;0.62;3.27;2.77;;;21.80;31.80;;;;;;2276858;60;20395;-66
2023/09/26 00:52:42;0.00;0.00;0.62;0.00;0.00;0.62;2.90;2.60;;;21.80;31.90;;;;;;2276819;60;21038;-61
2023/09/26 00:55:27;0.00;0.00;0.62;0.00;0.00;0.62;3.87;2.53;;;21.80;31.90;;;;;;2274594;60;20412;-63
2023/09/26 00:58:13;0.00;0.00;0.62;0.00;0.00;0.62;3.63;2.63;;;21.80;31.90;;;;;;2272291;61;20358;-63
2023/09/26 01:00:58;0.00;0.00;0.62;0.00;0.00;0.62;3.80;2.97;;;21.80;31.90;;;;;;2272566;61;20409;-60
2023/09/26 01:03:44;0.00;0.00;0.62;0.00;0.00;0.62;3.53;2.63;;;21.80;32.00;;;;;;2272519;61;20378;-61
2023/09/26 01:06:30;0.00;0.00;0.62;0.00;0.00;0.62;4.10;2.33;;;21.70;31.90;;;;;;2272852;61;20446;-59
2023/09/26 01:09:15;0.00;0.00;0.62;0.00;0.00;0.62;3.70;2.80;;;21.70;32.00;;;;;;2272564;61;20954;-62
2023/09/26 01:12:00;0.00;0.00;0.62;0.00;0.00;0.62;3.97;3.07;;;21.70;32.00;;;;;;2273155;61;20439;-59
2023/09/26 01:14:45;0.00;0.00;0.62;0.00;0.00;0.62;3.23;2.63;;;21.70;32.10;;;;;;2272354;61;20354;-62
2023/09/26 01:17:30;0.00;0.00;0.62;0.00;0.00;0.62;3.60;2.40;;;21.70;32.00;;;;;;2273119;61;20949;-67
2023/09/26 01:20:16;0.00;0.00;0.62;0.00;0.00;0.62;4.00;2.93;;;21.70;32.00;;;;;;2272879;61;21019;-59
2023/09/26 01:23:06;0.00;0.00;0.62;0.00;0.00;0.62;3.60;2.90;;;21.70;32.00;;;;;;2273017;61;20451;-65
2023/09/26 01:25:52;0.00;0.00;0.62;0.00;0.00;0.62;3.47;2.53;;;21.60;31.90;;;;;;2273072;61;20420;-58
2023/09/26 01:28:37;0.00;0.00;0.62;0.00;0.00;0.62;3.43;3.00;;;21.70;32.00;;;;;;2272594;61;20369;-58
2023/09/26 01:31:21;0.00;0.00;0.62;0.00;0.00;0.62;8.13;3.10;;;21.60;32.00;;;;;;2272720;61;20869;-60
2023/09/26 01:34:06;0.00;0.00;0.62;0.00;0.00;0.62;3.80;2.90;;;21.60;32.10;;;;;;2272332;61;20386;-63
2023/09/26 01:36:50;0.00;0.00;0.62;0.00;0.00;0.62;3.60;3.07;;;21.50;32.00;;;;;;2272389;61;20358;-61
2023/09/26 01:39:35;0.00;0.00;0.62;0.00;0.00;0.62;6.90;2.70;;;21.60;32.10;;;;;;2272232;61;20466;-66
2023/09/26 01:42:21;0.00;0.00;0.62;0.00;0.00;0.62;4.03;3.10;;;21.50;32.10;;;;;;2272562;61;20824;-62
2023/09/26 01:45:07;0.00;0.00;0.62;0.00;0.00;0.62;4.23;3.10;;;21.50;32.20;;;;;;2272119;61;20923;-60
2023/09/26 01:47:52;0.00;0.00;0.62;0.00;0.00;0.62;3.60;3.03;;;21.40;32.20;;;;;;2265211;61;20458;-61
2023/09/26 01:50:38;0.00;0.00;0.62;0.00;0.00;0.62;3.50;2.73;;;21.40;32.30;;;;;;2272571;61;20382;-63
2023/09/26 01:53:22;0.00;0.00;0.62;0.00;0.00;0.62;3.60;2.73;;;21.40;32.40;;;;;;2272733;61;20444;-62
2023/09/26 01:56:07;0.00;0.00;0.62;0.00;0.00;0.62;3.73;2.67;;;21.30;32.40;;;;;;2276251;60;20796;-59
2023/09/26 01:58:53;0.00;0.00;0.62;0.00;0.00;0.62;6.20;3.30;;;21.30;32.50;;;;;;2275737;60;20431;-63
2023/09/26 02:01:37;0.00;0.00;0.62;0.00;0.00;0.62;4.03;3.33;;;21.30;32.60;;;;;;2276464;60;20369;-61
2023/09/26 02:04:22;0.00;0.00;0.62;0.00;0.00;0.62;4.87;3.40;;;21.20;32.70;;;;;;2276383;60;20362;-61
2023/09/26 02:07:07;0.00;0.00;0.62;0.00;0.00;0.62;3.37;2.77;;;21.20;32.80;;;;;;2276924;60;20365;-60
2023/09/26 02:09:52;0.00;0.00;0.62;0.00;0.00;0.62;3.47;2.77;;;21.20;32.80;;;;;;2273981;60;20471;-59
2023/09/26 02:12:45;0.00;0.00;0.62;0.00;0.00;0.62;4.70;3.43;;;21.10;32.80;;;;;;2272598;61;20370;-61
2023/09/26 02:15:32;0.00;0.00;0.62;0.00;0.00;0.62;4.20;2.80;;;21.10;32.90;;;;;;2272857;61;20404;-63
2023/09/26 02:18:17;0.00;0.00;0.62;0.00;0.00;0.62;4.20;3.63;;;21.00;32.90;;;;;;2272278;61;20373;-60
2023/09/26 02:21:01;0.00;0.00;0.62;0.00;0.00;0.62;3.60;2.77;;;21.00;33.00;;;;;;2272089;61;20432;-63
2023/09/26 02:23:46;0.00;0.00;0.62;0.00;0.00;0.62;5.47;3.30;;;21.00;33.10;;;;;;2272819;61;20500;-59
2023/09/26 02:26:31;0.00;0.00;0.62;0.00;0.00;0.62;4.13;2.97;;;21.00;33.20;;;;;;2272620;61;20454;-63
2023/09/26 02:29:15;0.00;0.00;0.62;0.00;0.00;0.62;3.20;2.87;;;20.90;33.10;;;;;;2271738;61;20459;-63
2023/09/26 02:32:01;0.00;0.00;0.62;0.00;0.00;0.62;2.67;2.30;;;20.90;33.20;;;;;;2272098;61;20873;-61
2023/09/26 02:34:46;0.00;0.00;0.62;0.00;0.00;0.62;4.40;3.17;;;20.90;33.20;;;;;;2272431;61;20394;-59
2023/09/26 02:37:30;0.00;0.00;0.62;0.00;0.00;0.62;3.20;2.90;;;20.90;33.20;;;;;;2272683;61;20405;-56
2023/09/26 02:40:14;0.00;0.00;0.62;0.00;0.00;0.62;4.40;3.17;;;20.90;33.30;;;;;;2272677;61;20505;-59
2023/09/26 02:42:59;0.00;0.00;0.62;0.00;0.00;0.62;3.93;2.80;;;20.80;33.20;;;;;;2272366;61;20362;-56
2023/09/26 02:45:44;0.00;0.00;0.62;0.00;0.00;0.62;5.53;3.80;;;20.80;33.30;;;;;;2272368;61;20363;-62
2023/09/26 02:48:31;0.00;0.00;0.62;0.00;0.00;0.62;4.27;3.37;;;20.80;33.40;;;;;;2272352;61;20497;-61
2023/09/26 02:51:16;0.00;0.00;0.62;0.00;0.00;0.62;4.20;2.80;;;20.80;33.40;;;;;;2272569;61;20382;-60
2023/09/26 02:54:00;0.00;0.00;0.62;0.00;0.00;0.62;2.63;2.30;;;20.80;33.50;;;;;;2272257;60;20409;-61
2023/09/26 02:56:45;0.00;0.00;0.62;0.00;0.00;0.62;3.80;3.40;;;20.70;33.40;;;;;;2276631;60;20354;-61
2023/09/26 02:59:30;0.00;0.00;0.62;0.00;0.00;0.62;4.80;2.87;;;20.70;33.50;;;;;;2276254;60;20908;-60
2023/09/26 03:02:15;0.00;0.00;0.62;0.00;0.00;0.62;2.77;2.30;;;20.70;33.50;;;;;;2276243;60;20934;-63
2023/09/26 03:05:01;0.00;0.00;0.62;0.00;0.00;0.62;4.20;3.23;;;20.70;33.60;;;;;;2276554;60;20361;-63
2023/09/26 03:07:45;0.00;0.00;0.62;0.00;0.00;0.62;3.30;2.50;;;20.70;33.60;;;;;;2276733;60;20768;-63
2023/09/26 03:10:30;0.00;0.00;0.62;0.00;0.00;0.62;3.70;2.70;;;20.70;33.60;;;;;;2276189;60;20849;-70
2023/09/26 03:13:15;0.00;0.00;0.62;0.00;0.00;0.62;4.37;2.70;;;20.70;33.70;;;;;;2276342;60;20374;-64
2023/09/26 03:16:00;0.00;0.00;0.62;0.00;0.00;0.62;3.10;2.50;;;20.70;33.70;;;;;;2276232;60;20400;-63
2023/09/26 03:18:48;0.00;0.00;0.62;0.00;0.00;0.62;4.13;2.83;;;20.80;33.80;;;;;;2275868;60;20458;-63
2023/09/26 03:21:34;0.00;0.00;0.62;0.00;0.00;0.62;2.40;2.20;;;20.80;33.80;;;;;;2276483;60;20427;-62
2023/09/26 03:24:19;0.00;0.00;0.62;0.00;0.00;0.62;4.47;2.70;;;20.80;33.80;;;;;;2276234;60;20504;-63
2023/09/26 03:27:04;0.00;0.00;0.62;0.00;0.00;0.62;3.07;2.60;;;20.90;33.70;;;;;;2276042;60;20453;-61
2023/09/26 03:29:50;0.00;0.00;0.62;0.00;0.00;0.62;3.30;3.00;;;20.90;33.60;;;;;;2276050;60;20515;-62
2023/09/26 03:32:35;0.00;0.00;0.62;0.00;0.00;0.62;2.80;2.60;;;20.90;33.50;;;;;;2276126;60;20357;-59
2023/09/26 03:35:20;0.00;0.00;0.62;0.00;0.00;0.62;4.77;2.70;;;21.00;33.50;;;;;;2276494;60;20369;-64
2023/09/26 03:38:06;0.00;0.00;0.62;0.00;0.00;0.62;2.93;2.47;;;21.00;33.30;;;;;;2276107;60;20824;-63
2023/09/26 03:40:56;0.00;0.00;0.62;0.00;0.00;0.62;4.53;2.60;;;21.00;33.10;;;;;;2276151;60;20969;-63
2023/09/26 03:43:41;0.00;0.00;0.62;0.00;0.00;0.62;4.90;3.50;;;21.00;32.90;;;;;;2276658;60;20360;-63
2023/09/26 03:46:25;0.00;0.00;0.62;0.00;0.00;0.62;3.27;2.97;;;21.00;32.90;;;;;;2276268;60;20388;-60
2023/09/26 03:49:10;0.00;0.00;0.62;0.00;0.00;0.62;5.10;3.10;;;20.90;32.90;;;;;;2275857;60;20860;-63
2023/09/26 03:51:55;0.00;0.00;0.62;0.00;0.00;0.62;3.87;3.27;;;20.90;32.90;;;;;;2276098;60;20458;-63
2023/09/26 03:54:40;0.00;0.00;0.62;0.00;0.00;0.62;4.90;3.07;;;20.90;32.90;;;;;;2274673;60;20429;-61
2023/09/26 03:57:25;0.00;0.00;0.62;0.00;0.00;0.62;3.40;2.87;;;20.90;32.90;;;;;;2272363;61;20367;-61
2023/09/26 04:00:16;0.00;0.00;0.62;0.00;0.00;0.62;4.30;3.87;;;20.80;32.90;;;;;;2272044;61;20975;-61
2023/09/26 04:03:01;0.00;0.00;0.62;0.00;0.00;0.62;4.63;3.73;;;20.80;32.90;;;;;;2272510;61;20359;-59
2023/09/26 04:05:48;0.00;0.00;0.62;0.00;0.00;0.62;5.30;2.70;;;20.80;33.00;;;;;;2272432;61;20433;-56
2023/09/26 04:08:32;0.00;0.00;0.62;0.00;0.00;0.62;3.20;2.67;;;20.70;33.00;;;;;;2272085;61;20424;-61
2023/09/26 04:11:18;0.00;0.00;0.62;0.00;0.00;0.62;4.10;3.10;;;20.70;33.10;;;;;;2272122;61;20428;-60
2023/09/26 04:14:03;0.00;0.00;0.62;0.00;0.00;0.62;3.27;2.80;;;20.60;33.00;;;;;;2272579;61;20855;-63
2023/09/26 04:16:47;0.00;0.00;0.62;0.00;0.00;0.62;4.40;3.20;;;20.60;33.10;;;;;;2272391;61;20450;-63
2023/09/26 04:19:32;0.00;0.00;0.62;0.00;0.00;0.62;3.13;2.83;;;20.60;33.10;;;;;;2272070;61;20448;-64
2023/09/26 04:22:17;0.00;0.00;0.62;0.00;0.00;0.62;2.93;2.53;;;20.50;33.10;;;;;;2272279;61;20366;-60
2023/09/26 04:25:01;0.00;0.00;0.62;0.00;0.00;0.62;3.80;2.80;;;20.50;33.20;;;;;;2272550;61;20881;-61
2023/09/26 04:27:47;0.00;0.00;0.62;0.00;0.00;0.62;3.83;3.30;;;20.50;33.90;;;;;;2272319;61;20354;-63
2023/09/26 04:30:37;0.00;0.00;0.62;0.00;0.00;0.62;5.83;2.80;;;20.40;33.30;;;;;;2272450;61;20471;-61
2023/09/26 04:33:22;0.00;0.00;0.62;0.00;0.00;0.62;4.63;3.20;;;20.40;33.40;;;;;;2272257;61;20393;-57
2023/09/26 04:36:06;0.00;0.00;0.62;0.00;0.00;0.62;3.03;2.63;;;20.40;33.40;;;;;;2272548;61;21027;-61
2023/09/26 04:38:51;0.00;0.00;0.62;0.00;0.00;0.62;3.80;2.97;;;20.30;33.40;;;;;;2271879;61;20412;-61
2023/09/26 04:41:36;0.00;0.00;0.62;0.00;0.00;0.62;4.70;3.93;;;20.30;33.50;;;;;;2272341;61;20382;-61
2023/09/26 04:44:21;0.00;0.00;0.62;0.00;0.00;0.62;3.73;3.30;;;20.30;33.60;;;;;;2272367;61;20764;-63
2023/09/26 04:47:06;0.00;0.00;0.62;0.00;0.00;0.62;4.70;3.10;;;20.20;33.50;;;;;;2272355;61;20884;-66
2023/09/26 04:49:50;0.00;0.00;0.62;0.00;0.00;0.62;5.00;3.90;;;20.20;33.60;;;;;;2272048;61;20426;-57
2023/09/26 04:52:38;0.00;0.00;0.62;0.00;0.00;0.62;4.20;3.70;;;20.20;33.70;;;;;;2272417;61;20492;-60
2023/09/26 04:55:23;0.00;0.00;0.62;0.00;0.00;0.62;4.80;3.73;;;20.10;33.70;;;;;;2274658;60;20368;-60
2023/09/26 04:58:08;0.00;0.00;0.62;0.00;0.00;0.62;5.50;3.63;;;20.20;33.90;;;;;;2276264;60;20360;-60
2023/09/26 05:00:53;0.00;0.00;0.62;0.00;0.00;0.62;8.23;4.50;;;20.10;33.90;;;;;;2276287;60;20403;-60
2023/09/26 05:03:39;0.00;0.00;0.62;0.00;0.00;0.62;6.47;4.37;;;20.10;34.00;;;;;;2276142;60;20474;-61
2023/09/26 05:06:23;0.00;0.00;0.62;0.00;0.00;0.62;4.33;3.57;;;20.10;34.00;;;;;;2276268;60;20489;-62
2023/09/26 05:09:08;0.00;0.00;0.62;0.00;0.00;0.62;4.93;4.43;;;20.10;34.10;;;;;;2275630;60;20441;-61
2023/09/26 05:11:53;0.00;0.00;0.62;0.00;0.00;0.62;5.90;4.30;;;20.10;34.20;;;;;;2276087;60;20365;-63
2023/09/26 05:14:37;0.00;0.00;0.62;0.00;0.00;0.62;6.57;3.60;;;20.10;34.20;;;;;;2276298;60;20442;-59
2023/09/26 05:17:24;0.00;0.00;0.62;0.00;0.00;0.62;6.43;4.00;;;20.00;34.00;;;;;;2276098;60;20764;-61
2023/09/26 05:20:11;0.00;0.00;0.62;0.00;0.00;0.62;7.60;4.03;;;20.00;34.00;;;;;;2276261;60;20385;-57
2023/09/26 05:22:56;0.00;0.00;0.62;0.00;0.00;0.62;5.40;3.90;;;20.00;34.00;;;;;;2276422;60;20380;-61
2023/09/26 05:25:40;0.00;0.00;0.62;0.00;0.00;0.62;4.93;3.07;;;20.00;34.10;;;;;;2276292;60;20365;-63
2023/09/26 05:28:25;0.00;0.00;0.62;0.00;0.00;0.62;5.40;4.17;;;20.00;34.10;;;;;;2276068;60;20882;-62
2023/09/26 05:31:09;0.00;0.00;0.62;0.00;0.00;0.62;5.93;3.40;;;20.00;34.10;;;;;;2276942;60;20454;-62
2023/09/26 05:33:56;0.00;0.00;0.62;0.00;0.00;0.62;7.40;4.63;;;20.00;34.10;;;;;;2276841;60;20928;-59
2023/09/26 05:36:41;0.00;0.00;0.62;0.00;0.00;0.62;6.83;4.23;;;20.00;34.20;;;;;;2276504;60;20410;-60
2023/09/26 05:39:25;0.00;0.00;0.62;0.00;0.00;0.62;7.37;3.87;;;19.90;34.20;;;;;;2276454;60;20450;-63
2023/09/26 05:42:10;0.00;0.00;0.62;0.00;0.00;0.62;6.97;4.87;;;19.90;34.20;;;;;;2277096;60;20366;-61
2023/09/26 05:44:55;0.00;0.00;0.62;0.00;0.00;0.62;7.10;4.20;;;20.00;34.30;;;;;;2276906;60;20415;-60
2023/09/26 05:47:40;0.00;0.00;0.62;0.00;0.00;0.62;6.70;4.03;;;19.90;34.30;;;;;;2276620;60;20419;-62
2023/09/26 05:50:26;0.00;0.00;0.62;0.00;0.00;0.62;6.20;3.77;;;20.00;34.40;;;;;;2276820;60;20380;-61
2023/09/26 05:53:12;0.00;0.00;0.62;0.00;0.00;0.62;4.93;3.27;;;20.00;34.40;;;;;;2276890;60;20430;-61
2023/09/26 05:55:57;0.00;0.00;0.62;0.00;0.00;0.62;12.20;4.37;;;20.00;34.30;;;;;;2272961;61;20362;-61
2023/09/26 05:58:41;0.00;0.00;0.62;0.00;0.00;0.62;7.60;4.53;;;20.00;34.30;;;;;;2272724;61;20370;-61
2023/09/26 06:01:26;0.00;0.00;0.62;0.00;0.00;0.62;5.83;3.73;;;20.00;34.20;;;;;;2272388;61;20428;-60
2023/09/26 06:04:11;0.00;0.00;0.62;0.00;0.00;0.62;8.20;4.43;;;20.00;34.20;;;;;;2272761;61;20354;-58
2023/09/26 06:06:57;0.00;0.00;0.62;0.00;0.00;0.62;12.87;4.10;;;20.00;34.20;;;;;;2272484;61;20401;-60
2023/09/26 06:09:41;0.00;0.00;0.62;0.00;0.00;0.62;5.50;4.33;;;20.00;34.20;;;;;;2272222;61;20394;-60
2023/09/26 06:12:25;0.00;0.00;0.62;0.00;0.00;0.62;7.33;3.53;;;20.00;34.20;;;;;;2272866;61;20412;-64
2023/09/26 06:15:10;0.00;0.00;0.62;0.00;0.00;0.62;5.10;4.10;;;20.00;34.20;;;;;;2272712;61;20444;-60
2023/09/26 06:17:59;0.00;0.00;0.62;0.00;0.00;0.62;4.10;3.70;;;20.00;34.30;;;;;;2272302;61;20370;-59
2023/09/26 06:20:44;0.00;0.00;0.62;0.00;0.00;0.62;8.30;3.90;;;20.00;34.30;;;;;;2272767;61;20619;-60
2023/09/26 06:23:31;0.00;0.00;0.62;0.00;0.00;0.62;6.57;3.33;;;20.00;34.40;;;;;;2272638;61;20373;-62
2023/09/26 06:26:16;0.00;0.00;0.62;0.00;0.00;0.62;4.53;3.67;;;20.00;34.50;;;;;;2272696;61;20374;-61
2023/09/26 06:29:00;0.00;0.00;0.62;0.00;0.00;0.62;4.77;3.27;;;20.00;34.60;;;;;;2272517;61;20413;-63
2023/09/26 06:31:45;0.00;0.00;0.62;0.00;0.00;0.62;4.50;3.57;;;20.00;34.60;;;;;;2272622;61;20447;-59
2023/09/26 06:34:31;0.00;0.00;0.62;0.00;0.00;0.62;7.03;3.90;;;20.00;34.60;;;;;;2272808;61;20474;-59
2023/09/26 06:37:16;0.00;0.00;0.62;0.00;0.00;0.62;4.43;3.60;;;19.90;34.50;;;;;;2272796;61;20444;-58
2023/09/26 06:40:06;0.00;0.00;0.62;0.00;0.00;0.62;5.17;3.90;;;19.90;34.50;;;;;;2272187;60;20404;-64
2023/09/26 06:42:50;0.00;0.00;0.62;0.00;0.00;0.62;12.30;4.17;;;19.90;34.60;;;;;;2272779;61;20423;-61
2023/09/26 06:45:39;0.00;0.00;0.62;0.00;0.00;0.62;4.93;3.80;;;19.90;34.60;;;;;;2272715;61;20358;-59
2023/09/26 06:48:24;0.00;0.00;0.62;0.00;0.00;0.62;4.80;3.67;;;20.00;34.80;;;;;;2271791;61;20366;-59
2023/09/26 06:51:09;0.00;0.00;0.62;0.00;0.00;0.62;4.87;4.00;;;19.90;34.70;;;;;;2272557;61;20475;-63
2023/09/26 06:53:53;0.00;0.00;0.62;0.00;0.00;0.62;5.13;4.10;;;19.90;34.80;;;;;;2272725;61;20389;-60
2023/09/26 06:56:39;0.00;0.00;0.62;0.00;0.00;0.62;6.53;4.07;;;19.90;34.90;;;;;;2719408;45;20762;-59
2023/09/26 06:59:24;0.00;0.00;0.62;0.00;0.00;0.62;3.80;3.43;;;20.00;35.20;;;;;;2268253;61;20367;-61
2023/09/26 07:02:08;0.00;0.00;0.62;0.00;0.00;0.62;7.77;4.10;;;20.00;35.30;;;;;;2268431;61;20867;-61
2023/09/26 07:04:54;0.00;0.00;0.62;0.00;0.00;0.62;9.60;3.80;;;20.00;35.30;;;;;;2268557;61;20880;-62
2023/09/26 07:07:39;0.00;0.00;0.62;0.00;0.00;0.62;6.67;3.50;;;20.00;35.40;;;;;;2268058;61;20382;-62
2023/09/26 07:10:24;0.00;0.00;0.62;0.00;0.00;0.62;3.83;3.03;;;20.00;35.30;;;;;;2268658;61;20406;-59
2023/09/26 07:13:10;0.00;0.00;0.62;0.00;0.00;0.62;6.80;3.50;;;20.00;35.30;;;;;;2268456;61;20490;-62
2023/09/26 07:15:59;0.00;0.00;0.62;0.00;0.00;0.62;5.03;4.10;;;20.10;35.40;;;;;;2268498;61;20929;-64
2023/09/26 07:18:44;0.00;0.00;0.62;0.00;0.00;0.62;9.83;4.13;;;20.10;35.40;;;;;;2268174;61;20370;-59
2023/09/26 07:21:28;0.00;0.00;0.62;0.00;0.00;0.62;6.70;3.83;;;20.10;35.40;;;;;;2268520;61;20386;-60
2023/09/26 07:24:13;0.00;0.00;0.62;0.00;0.00;0.62;5.70;3.93;;;20.10;35.40;;;;;;2268154;61;20359;-59
2023/09/26 07:26:58;0.00;0.00;0.62;0.00;0.00;0.62;7.50;4.00;;;20.10;35.40;;;;;;2268121;61;20433;-63
2023/09/26 07:29:46;0.00;0.00;0.62;0.00;0.00;0.62;4.47;4.07;;;20.10;35.50;;;;;;2267881;61;20387;-61
2023/09/26 07:32:31;0.00;0.00;0.62;0.00;0.00;0.62;3.80;3.40;;;20.10;35.80;;;;;;2268339;61;20409;-59
2023/09/26 07:35:15;0.00;0.00;0.62;0.00;0.00;0.62;4.27;3.87;;;20.10;35.80;;;;;;2268879;61;20386;-63
2023/09/26 07:38:00;0.00;0.00;0.62;0.00;0.00;0.62;4.60;3.90;;;20.10;35.90;;;;;;2272072;60;20870;-61
2023/09/26 07:40:44;0.00;0.00;0.62;0.00;0.00;0.62;5.17;4.17;;;20.10;36.00;;;;;;2272567;60;20439;-61
2023/09/26 07:43:32;0.00;0.00;0.62;0.00;0.00;0.62;6.53;3.90;;;20.20;36.10;;;;;;2272710;60;20777;-58
2023/09/26 07:46:18;0.00;0.00;0.62;0.00;0.00;0.62;4.33;3.93;;;20.20;36.20;;;;;;2272151;60;20416;-66
2023/09/26 07:49:02;0.00;0.00;0.62;0.00;0.00;0.62;5.10;3.83;;;20.20;36.20;;;;;;2272278;60;20366;-61
2023/09/26 07:51:48;0.00;0.00;0.62;0.00;0.00;0.62;4.00;3.60;;;20.20;36.90;;;;;;2272166;60;20984;-62
2023/09/26 07:54:33;0.00;0.00;0.62;0.00;0.00;0.62;5.73;4.03;;;20.30;36.40;;;;;;2271869;61;20516;-61
2023/09/26 07:57:18;0.00;0.00;0.62;0.00;0.00;0.62;4.30;3.70;;;20.30;36.50;;;;;;2272302;61;20453;-59
2023/09/26 08:00:10;0.00;0.00;0.62;0.00;0.00;0.62;4.63;4.07;;;20.30;36.60;;;;;;2271714;61;20402;-58
2023/09/26 08:02:56;0.00;0.00;0.62;0.00;0.00;0.62;5.83;3.90;;;20.30;36.70;;;;;;2271968;61;20375;-61
2023/09/26 08:05:41;0.00;0.00;0.62;0.00;0.00;0.62;3.90;3.50;;;20.40;36.90;;;;;;2272299;61;20362;-65
2023/09/26 08:08:25;0.00;0.00;0.62;0.00;0.00;0.62;6.10;4.13;;;20.40;36.90;;;;;;2271489;61;20408;-56
2023/09/26 08:11:11;0.00;0.00;0.62;0.00;0.00;0.62;4.33;3.87;;;20.40;37.00;;;;;;2271955;61;20933;-60
2023/09/26 08:13:57;0.00;0.00;0.62;0.00;0.00;0.62;4.70;4.20;;;20.50;37.20;;;;;;2272046;61;20379;-59
2023/09/26 08:16:43;0.00;0.00;0.62;0.00;0.00;0.62;4.37;3.90;;;20.50;37.20;;;;;;2271992;61;20404;-60
2023/09/26 08:19:29;0.00;0.00;0.62;0.00;0.00;0.62;7.33;3.80;;;20.60;37.40;;;;;;2271960;61;20889;-63
2023/09/26 08:22:13;0.00;0.00;0.62;0.00;0.00;0.62;3.50;3.20;;;20.50;37.40;;;;;;2272455;61;20773;-62
2023/09/26 08:24:58;0.00;0.00;0.62;0.00;0.00;0.62;4.00;3.60;;;20.60;37.50;;;;;;2272474;61;20358;-62
2023/09/26 08:27:43;0.00;0.00;0.62;0.00;0.00;0.62;5.90;3.73;;;20.70;37.80;;;;;;2272419;61;20457;-60
2023/09/26 08:30:28;0.00;0.00;0.62;0.00;0.00;0.62;3.97;3.57;;;20.70;37.90;;;;;;2272110;61;20439;-63
2023/09/26 08:33:12;0.00;0.00;0.62;0.00;0.00;0.62;3.80;3.00;;;20.80;37.90;;;;;;2272273;61;20450;-61
2023/09/26 08:35:58;0.00;0.00;0.62;0.00;0.00;0.62;5.27;3.63;;;20.80;37.80;;;;;;2272498;61;20397;-61
2023/09/26 08:38:43;0.00;0.00;0.62;0.00;0.00;0.62;5.10;3.43;;;20.90;37.80;;;;;;2271908;61;20389;-63
2023/09/26 08:41:30;0.00;0.00;0.62;0.00;0.00;0.62;3.63;3.33;;;20.90;37.70;;;;;;2272378;61;20431;-60
2023/09/26 08:44:14;0.00;0.00;0.62;0.00;0.00;0.62;5.63;4.00;;;21.00;37.80;;;;;;2272530;61;20408;-58
2023/09/26 08:47:01;0.00;0.00;0.62;0.00;0.00;0.62;3.60;3.30;;;21.00;37.80;;;;;;2272210;61;20407;-62
2023/09/26 08:49:47;0.00;0.00;0.62;0.00;0.00;0.62;3.67;3.37;;;21.10;37.90;;;;;;2271932;61;20431;-62
2023/09/26 08:52:34;0.00;0.00;0.62;0.00;0.00;0.62;3.50;2.87;;;21.10;37.90;;;;;;2272176;61;20501;-62
2023/09/26 08:55:20;0.00;0.00;0.62;0.00;0.00;0.62;6.23;4.77;;;21.20;37.80;;;;;;2274797;60;20398;-64
2023/09/26 08:58:05;0.00;0.00;0.62;0.00;0.00;0.62;3.70;3.00;;;21.30;38.50;;;;;;2276077;60;20380;-61
2023/09/26 09:00:50;0.00;0.00;0.62;0.00;0.00;0.62;6.13;3.30;;;21.30;37.70;;;;;;2276568;60;20438;-60
2023/09/26 09:03:35;0.00;0.00;0.62;0.00;0.00;0.62;5.00;3.47;;;21.40;37.60;;;;;;2276541;60;20357;-61
2023/09/26 09:06:20;0.00;0.00;0.62;0.00;0.00;0.62;4.00;3.60;;;21.40;37.70;;;;;;2277330;60;20360;-61
2023/09/26 09:09:10;0.00;0.00;0.62;0.00;0.00;0.62;4.60;3.27;;;21.50;37.70;;;;;;2273053;60;20362;-64
2023/09/26 09:11:54;0.00;0.00;0.62;0.00;0.00;0.62;3.20;2.90;;;21.50;37.60;;;;;;2273116;61;20763;-60
2023/09/26 09:14:38;0.00;0.00;0.62;0.00;0.00;0.62;4.30;3.70;;;21.60;37.60;;;;;;2272589;61;20644;-61
2023/09/26 09:17:23;0.00;0.00;0.62;0.00;0.00;0.62;3.07;2.77;;;21.60;37.60;;;;;;2273171;61;21052;-60
2023/09/26 09:20:09;0.00;0.00;0.62;0.00;0.00;0.62;3.00;2.70;;;21.70;37.50;;;;;;2272541;61;20390;-60
2023/09/26 09:23:00;0.00;0.00;0.62;0.00;0.00;0.62;6.70;2.77;;;21.70;37.40;;;;;;2272950;61;20435;-61
2023/09/26 09:25:50;0.00;0.00;0.62;0.00;0.00;0.62;5.20;2.93;;;21.80;37.30;;;;;;2272973;61;20764;-62
2023/09/26 09:28:34;0.00;0.00;0.62;0.00;0.00;0.62;4.00;3.40;;;21.80;37.20;;;;;;2272533;61;20373;-62
2023/09/26 09:31:19;0.00;0.00;0.62;0.00;0.00;0.62;4.60;3.17;;;21.90;37.10;;;;;;2272871;61;20386;-63
2023/09/26 09:34:05;0.00;0.00;0.62;0.00;0.00;0.62;3.70;2.67;;;21.90;37.10;;;;;;2273130;61;20381;-60
2023/09/26 09:36:50;0.00;0.00;0.62;0.00;0.00;0.62;2.80;2.50;;;22.00;37.20;;;;;;2272369;61;20366;-63
2023/09/26 09:39:34;0.00;0.00;0.62;0.00;0.00;0.62;3.47;2.60;;;22.00;37.10;;;;;;2272712;61;20385;-59
2023/09/26 09:42:21;0.00;0.00;0.62;0.00;0.00;0.62;4.10;3.70;;;22.10;37.20;;;;;;2272953;61;20366;-58
2023/09/26 09:45:08;0.00;0.00;0.62;0.00;0.00;0.62;4.30;2.83;;;22.10;37.20;;;;;;2272241;61;20386;-66
2023/09/26 09:47:57;0.00;0.00;0.62;0.00;0.00;0.62;3.30;2.80;;;22.20;37.30;;;;;;2272503;61;20369;-64
2023/09/26 09:50:42;0.00;0.00;0.62;0.00;0.00;0.62;4.20;3.50;;;22.30;37.10;;;;;;2273103;61;20471;-60
2023/09/26 09:53:31;0.00;0.00;0.62;0.00;0.00;0.62;3.40;2.90;;;22.30;37.00;;;;;;2272569;61;20365;-60
2023/09/26 09:56:19;0.00;0.00;0.62;0.00;0.00;0.62;3.23;2.93;;;22.40;37.00;;;;;;2277043;60;20405;-62
2023/09/26 09:59:13;0.00;0.00;0.62;0.00;0.00;0.62;4.90;3.33;;;22.40;37.60;;;;;;2276265;60;20579;-59
2023/09/26 10:01:57;0.00;0.00;0.62;0.00;0.00;0.62;2.83;2.53;;;22.50;37.00;;;;;;2277137;60;20362;-61
2023/09/26 10:04:55;0.00;0.00;0.62;0.00;0.00;0.62;3.20;2.80;;;22.50;36.70;;;;;;2277106;60;20401;-58
2023/09/26 10:07:41;0.00;0.00;0.62;0.00;0.00;0.62;3.33;2.80;;;22.60;36.80;;;;;;2276814;60;20483;-61
2023/09/26 10:10:26;0.00;0.00;0.62;0.00;0.00;0.62;4.80;3.80;;;22.60;36.60;;;;;;2276959;60;20436;-59
2023/09/26 10:13:12;0.00;0.00;0.62;0.00;0.00;0.62;3.50;2.90;;;22.70;36.60;;;;;;2276970;60;20391;-60
2023/09/26 10:16:07;0.00;0.00;0.62;0.00;0.00;0.62;3.77;2.87;;;22.70;36.70;;;;;;2276639;60;20916;-60
2023/09/26 10:18:53;0.00;0.00;0.62;0.00;0.00;0.62;3.80;2.60;;;22.80;36.70;;;;;;2276714;60;20895;-64
2023/09/26 10:21:40;0.00;0.00;0.62;0.00;0.00;0.62;4.47;2.97;;;22.80;36.60;;;;;;2276797;60;20381;-60
2023/09/26 10:24:26;0.00;0.00;0.62;0.00;0.00;0.62;4.80;3.07;;;22.90;36.70;;;;;;2277008;60;20885;-60
2023/09/26 10:27:10;0.00;0.00;0.62;0.00;0.00;0.62;6.23;2.87;;;22.90;36.50;;;;;;2276765;60;20411;-61
2023/09/26 10:29:55;0.00;0.00;0.62;0.00;0.00;0.62;4.90;2.50;;;23.00;36.40;;;;;;2276481;60;20385;-61
2023/09/26 10:32:43;0.00;0.00;0.62;0.00;0.00;0.62;2.90;2.50;;;23.00;36.20;;;;;;2276915;60;20358;-58
2023/09/26 10:35:28;0.00;0.00;0.62;0.00;0.00;0.62;3.07;2.33;;;23.10;36.90;;;;;;2276686;60;20389;-61
2023/09/26 10:38:23;0.00;0.00;0.62;0.00;0.00;0.62;4.23;2.50;;;23.10;36.10;;;;;;2276355;60;20837;-63
2023/09/26 10:41:09;0.00;0.00;0.62;0.00;0.00;0.62;2.40;2.10;;;23.20;36.10;;;;;;2276871;60;20575;-62
2023/09/26 10:43:54;0.00;0.00;0.62;0.00;0.00;0.62;3.93;2.67;;;23.20;36.00;;;;;;2276576;60;20375;-57
2023/09/26 10:46:38;0.00;0.00;0.62;0.00;0.00;0.62;4.97;2.90;;;23.30;36.00;;;;;;2276780;60;20427;-59
2023/09/26 10:49:26;0.00;0.00;0.62;0.00;0.00;0.62;3.60;2.50;;;23.30;35.90;;;;;;2276279;60;20407;-60
2023/09/26 10:52:11;0.00;0.00;0.62;0.00;0.00;0.62;3.90;2.70;;;23.40;35.90;;;;;;2276495;60;20495;-65